Time;durP1;ratioP1;P1;durP2;ratioP2;P2;SDS_P1;SDS_P2;PMS_P1;PMS_P2;Temp;Humidity;BMP_temperature;BMP_pressure;BME280_temperature;BME280_humidity;BME280_pressure;Samples;Min_cycle;Max_cycle;Signal;HPM_P1;HPM_P2
2021/10/03 00:02:12;;;;;;;6.73;5.57;;;;;;;;;;4973763;28;20476;-72
2021/10/03 00:04:39;;;;;;;7.40;4.80;;;;;;;;;;4973799;28;20421;-73
2021/10/03 00:07:06;;;;;;;17.83;5.00;;;;;;;;;;4974170;28;20777;-72
2021/10/03 00:09:32;;;;;;;6.83;4.90;;;;;;;;;;4974237;28;20825;-73
2021/10/03 00:11:58;;;;;;;7.17;4.63;;;;;;;;;;4973662;28;20525;-73
2021/10/03 00:14:25;;;;;;;6.97;4.10;;;;;;;;;;4973993;28;20429;-73
2021/10/03 00:16:55;;;;;;;5.50;4.13;;;;;;;;;;4973769;28;20965;-73
2021/10/03 00:22:24;;;;;;;7.20;4.63;;;;;;;;;;4973728;28;20537;-72
2021/10/03 00:24:50;;;;;;;4.47;4.07;;;;;;;;;;4973969;28;20468;-71
2021/10/03 00:27:16;;;;;;;8.13;5.20;;;;;;;;;;4973500;28;20486;-72
2021/10/03 00:29:42;;;;;;;5.27;3.73;;;;;;;;;;4973517;28;20879;-72
2021/10/03 00:32:08;;;;;;;4.07;3.67;;;;;;;;;;4973570;28;20454;-72
2021/10/03 00:37:38;;;;;;;4.13;3.73;;;;;;;;;;4975027;28;20421;-73
2021/10/03 00:40:05;;;;;;;6.23;4.07;;;;;;;;;;4977304;28;20461;-72
2021/10/03 00:42:31;;;;;;;4.17;3.77;;;;;;;;;;4976961;28;20979;-72
2021/10/03 00:44:56;;;;;;;4.40;4.00;;;;;;;;;;4977145;28;20425;-71
2021/10/03 00:47:23;;;;;;;4.63;3.90;;;;;;;;;;4977186;28;20414;-73
2021/10/03 00:52:52;;;;;;;4.40;4.00;;;;;;;;;;4976536;28;20421;-72
2021/10/03 00:55:20;;;;;;;4.70;3.70;;;;;;;;;;4976891;28;20469;-72
2021/10/03 00:57:48;;;;;;;3.50;3.20;;;;;;;;;;4976589;28;20489;-72
2021/10/03 01:00:14;;;;;;;3.97;3.57;;;;;;;;;;4977132;28;20779;-72
2021/10/03 01:02:42;;;;;;;3.70;3.40;;;;;;;;;;4976824;28;20908;-73
2021/10/03 01:08:11;;;;;;;3.70;3.40;;;;;;;;;;4976871;28;20456;-72
2021/10/03 01:10:37;;;;;;;3.63;3.33;;;;;;;;;;4976775;28;20415;-73
2021/10/03 01:13:08;;;;;;;4.43;3.87;;;;;;;;;;4976460;28;20430;-72
2021/10/03 01:15:35;;;;;;;5.97;3.23;;;;;;;;;;4976803;28;20462;-72
2021/10/03 01:18:01;;;;;;;5.40;3.93;;;;;;;;;;4976590;28;20410;-71
2021/10/03 01:20:27;;;;;;;4.30;3.90;;;;;;;;;;4976707;28;20425;-72
2021/10/03 01:22:53;;;;;;;3.90;3.60;;;;;;;;;;4976336;28;20467;-73
2021/10/03 01:25:19;;;;;;;4.50;4.00;;;;;;;;;;4976725;28;20780;-73
2021/10/03 01:27:45;;;;;;;4.73;4.30;;;;;;;;;;4976113;28;20485;-72
2021/10/03 01:30:14;;;;;;;4.60;4.20;;;;;;;;;;4976388;28;20445;-72
2021/10/03 01:32:40;;;;;;;4.70;4.30;;;;;;;;;;4976281;28;20854;-71
2021/10/03 01:38:11;;;;;;;4.23;3.93;;;;;;;;;;4976128;28;20437;-72
2021/10/03 01:40:37;;;;;;;3.73;3.40;;;;;;;;;;4976190;28;20819;-72
2021/10/03 01:43:04;;;;;;;5.30;4.57;;;;;;;;;;4975743;28;20521;-72
2021/10/03 01:45:30;;;;;;;4.20;3.63;;;;;;;;;;4976448;28;20441;-72
2021/10/03 01:48:05;;;;;;;3.50;3.20;;;;;;;;;;4976326;28;20418;-72
2021/10/03 01:53:45;;;;;;;4.20;3.80;;;;;;;;;;4975945;28;20420;-72
2021/10/03 01:56:13;;;;;;;4.70;4.30;;;;;;;;;;4975493;28;20557;-72
2021/10/03 01:58:42;;;;;;;7.07;3.80;;;;;;;;;;4974835;28;20430;-72
2021/10/03 02:01:13;;;;;;;4.80;4.30;;;;;;;;;;4975744;28;20437;-71
2021/10/03 02:03:40;;;;;;;5.70;4.40;;;;;;;;;;4975736;28;20437;-72
2021/10/03 02:06:06;;;;;;;5.90;4.40;;;;;;;;;;4975718;28;20477;-72
2021/10/03 02:08:32;;;;;;;5.43;4.80;;;;;;;;;;4975894;28;20415;-72
2021/10/03 02:10:58;;;;;;;4.80;4.40;;;;;;;;;;4975379;28;20500;-72
2021/10/03 02:13:24;;;;;;;5.07;4.57;;;;;;;;;;4975601;28;20852;-70
2021/10/03 02:15:51;;;;;;;4.33;3.93;;;;;;;;;;4975561;28;20426;-72
2021/10/03 02:18:18;;;;;;;4.80;4.33;;;;;;;;;;4975638;28;20422;-72
2021/10/03 02:23:47;;;;;;;4.10;3.80;;;;;;;;;;4975177;28;20533;-72
2021/10/03 02:26:13;;;;;;;5.00;4.50;;;;;;;;;;4975151;28;20450;-72
2021/10/03 02:28:39;;;;;;;5.43;4.10;;;;;;;;;;4975085;28;20763;-73
2021/10/03 02:31:08;;;;;;;6.70;4.10;;;;;;;;;;4975237;28;20427;-73
2021/10/03 02:33:35;;;;;;;4.70;4.30;;;;;;;;;;4975244;28;20495;-72
2021/10/03 02:36:01;;;;;;;6.13;4.40;;;;;;;;;;4975099;28;20430;-72
2021/10/03 02:38:27;;;;;;;4.70;4.30;;;;;;;;;;4975079;28;20900;-72
2021/10/03 02:40:55;;;;;;;5.90;4.17;;;;;;;;;;4975172;28;20513;-73
2021/10/03 02:43:21;;;;;;;4.30;3.93;;;;;;;;;;4973660;28;20842;-73
2021/10/03 02:45:49;;;;;;;4.80;4.30;;;;;;;;;;4975004;28;20583;-73
2021/10/03 02:48:16;;;;;;;5.10;4.60;;;;;;;;;;4974749;28;20426;-72
2021/10/03 02:53:47;;;;;;;4.50;3.97;;;;;;;;;;4974421;28;20414;-71
2021/10/03 02:56:13;;;;;;;4.20;3.80;;;;;;;;;;4974347;28;20478;-71
2021/10/03 02:58:39;;;;;;;4.67;4.27;;;;;;;;;;4974988;28;20910;-72
2021/10/03 03:01:05;;;;;;;4.43;4.03;;;;;;;;;;4974806;28;20415;-71
2021/10/03 03:03:33;;;;;;;4.43;4.00;;;;;;;;;;4974799;28;20427;-72
2021/10/03 03:09:02;;;;;;;6.43;4.20;;;;;;;;;;4974661;28;20920;-72
2021/10/03 03:11:28;;;;;;;3.93;3.60;;;;;;;;;;4974436;28;20419;-72
2021/10/03 03:13:54;;;;;;;4.30;3.90;;;;;;;;;;4974440;28;20410;-72
2021/10/03 03:16:20;;;;;;;3.90;3.60;;;;;;;;;;4974578;28;20421;-72
2021/10/03 03:18:46;;;;;;;4.13;3.80;;;;;;;;;;4974734;28;20426;-71
2021/10/03 03:24:16;;;;;;;4.20;3.87;;;;;;;;;;4974383;28;20418;-71
2021/10/03 03:26:42;;;;;;;4.20;3.90;;;;;;;;;;4974066;28;20426;-71
2021/10/03 03:29:08;;;;;;;4.37;4.07;;;;;;;;;;4974455;28;20409;-71
2021/10/03 03:31:34;;;;;;;5.20;4.30;;;;;;;;;;4974455;28;20477;-71
2021/10/03 03:39:48;;;;;;;4.97;4.10;;;;;;;;;;4974243;28;20980;-72
2021/10/03 03:42:14;;;;;;;4.33;3.83;;;;;;;;;;4973969;28;20474;-72
2021/10/03 03:44:40;;;;;;;4.07;3.67;;;;;;;;;;4974416;28;20761;-72
2021/10/03 03:47:06;;;;;;;5.63;4.67;;;;;;;;;;4973940;28;20422;-72
2021/10/03 03:49:32;;;;;;;4.50;4.10;;;;;;;;;;4974164;28;20415;-71
2021/10/03 03:51:58;;;;;;;6.83;3.80;;;;;;;;;;4974058;28;20462;-71
2021/10/03 03:54:24;;;;;;;5.03;3.77;;;;;;;;;;4973919;28;20423;-72
2021/10/03 03:56:51;;;;;;;4.20;3.80;;;;;;;;;;4973934;28;20437;-72
2021/10/03 03:59:17;;;;;;;4.00;3.40;;;;;;;;;;4972917;28;20449;-72
2021/10/03 04:01:43;;;;;;;6.50;3.80;;;;;;;;;;4973788;28;20478;-72
2021/10/03 04:04:10;;;;;;;4.93;3.90;;;;;;;;;;4974059;28;20493;-71
2021/10/03 04:09:39;;;;;;;4.17;3.70;;;;;;;;;;4973892;28;20429;-72
2021/10/03 04:12:06;;;;;;;3.77;3.33;;;;;;;;;;4974403;28;20414;-72
2021/10/03 04:14:32;;;;;;;4.53;3.67;;;;;;;;;;4977684;28;20917;-72
2021/10/03 04:16:58;;;;;;;4.57;3.90;;;;;;;;;;4977656;28;20420;-71
2021/10/03 04:19:24;;;;;;;4.27;3.87;;;;;;;;;;4977981;28;20426;-72
2021/10/03 04:24:53;;;;;;;4.40;3.37;;;;;;;;;;4977671;28;20425;-72
2021/10/03 04:27:19;;;;;;;4.87;4.07;;;;;;;;;;4977454;28;20477;-71
2021/10/03 04:29:45;;;;;;;3.57;3.27;;;;;;;;;;4977492;28;20893;-72
2021/10/03 04:32:11;;;;;;;3.77;3.40;;;;;;;;;;4977726;28;20422;-71
2021/10/03 04:34:37;;;;;;;4.20;3.70;;;;;;;;;;4977553;28;20845;-72
2021/10/03 04:37:03;;;;;;;7.27;3.93;;;;;;;;;;4977355;28;20447;-72
2021/10/03 04:39:31;;;;;;;5.47;4.20;;;;;;;;;;4976083;28;20426;-72
2021/10/03 04:41:58;;;;;;;4.60;4.20;;;;;;;;;;4977203;28;20520;-71
2021/10/03 04:44:24;;;;;;;4.57;4.17;;;;;;;;;;4977140;28;20427;-71
2021/10/03 04:46:50;;;;;;;4.20;3.80;;;;;;;;;;4977247;28;20458;-72
2021/10/03 04:49:16;;;;;;;4.20;3.60;;;;;;;;;;4977177;28;20429;-72
2021/10/03 04:54:45;;;;;;;6.83;3.53;;;;;;;;;;4976293;28;20465;-71
2021/10/03 04:57:11;;;;;;;3.43;3.17;;;;;;;;;;4977067;28;20415;-72
2021/10/03 04:59:37;;;;;;;6.50;3.90;;;;;;;;;;4976880;28;20912;-72
2021/10/03 05:02:03;;;;;;;3.50;3.20;;;;;;;;;;4975526;28;20478;-71
2021/10/03 05:04:29;;;;;;;3.50;3.20;;;;;;;;;;4976840;28;20426;-71
2021/10/03 05:10:00;;;;;;;5.27;3.80;;;;;;;;;;4976670;28;20430;-71
2021/10/03 05:12:26;;;;;;;3.63;3.10;;;;;;;;;;4975228;28;20411;-71
2021/10/03 05:14:52;;;;;;;6.60;3.20;;;;;;;;;;4976607;28;20422;-71
2021/10/03 05:17:18;;;;;;;3.10;2.70;;;;;;;;;;4976445;28;20407;-71
2021/10/03 05:19:44;;;;;;;4.90;3.90;;;;;;;;;;4975306;28;20858;-72
2021/10/03 05:25:14;;;;;;;4.10;3.50;;;;;;;;;;4975411;28;20787;-71
2021/10/03 05:27:40;;;;;;;4.53;3.43;;;;;;;;;;4976197;28;20406;-73
2021/10/03 05:30:06;;;;;;;3.70;3.30;;;;;;;;;;4976265;28;20521;-73
2021/10/03 05:32:32;;;;;;;3.63;3.33;;;;;;;;;;4976315;28;20407;-72
2021/10/03 05:34:58;;;;;;;4.10;3.20;;;;;;;;;;4976203;28;20426;-71
2021/10/03 05:40:28;;;;;;;3.17;2.90;;;;;;;;;;4976015;28;20417;-72
2021/10/03 05:42:54;;;;;;;4.33;3.50;;;;;;;;;;4974554;28;20482;-72
2021/10/03 05:45:20;;;;;;;3.10;2.80;;;;;;;;;;4975973;28;20415;-72
2021/10/03 05:47:46;;;;;;;3.10;2.90;;;;;;;;;;4976261;28;20450;-71
2021/10/03 05:50:12;;;;;;;4.00;3.70;;;;;;;;;;4975990;28;20902;-72
2021/10/03 05:55:42;;;;;;;3.20;2.90;;;;;;;;;;4975916;28;20546;-71
2021/10/03 05:58:08;;;;;;;5.13;4.13;;;;;;;;;;4975464;28;20450;-72
2021/10/03 06:00:34;;;;;;;3.20;3.00;;;;;;;;;;4975995;28;20423;-72
2021/10/03 06:03:00;;;;;;;4.00;3.60;;;;;;;;;;4976040;28;20844;-72
2021/10/03 06:05:26;;;;;;;4.83;3.50;;;;;;;;;;4974761;28;20775;-72
2021/10/03 06:10:55;;;;;;;4.03;3.70;;;;;;;;;;4975399;28;20414;-71
2021/10/03 06:13:21;;;;;;;4.60;4.20;;;;;;;;;;4975421;28;20897;-72
2021/10/03 06:15:47;;;;;;;5.10;3.03;;;;;;;;;;4974289;28;20430;-72
2021/10/03 06:18:14;;;;;;;3.57;3.27;;;;;;;;;;4975464;28;20431;-72
2021/10/03 06:20:40;;;;;;;3.90;3.50;;;;;;;;;;4975459;28;20419;-72
2021/10/03 06:26:11;;;;;;;3.10;2.80;;;;;;;;;;4975343;28;20417;-72
2021/10/03 06:28:38;;;;;;;3.43;3.13;;;;;;;;;;4974527;28;20410;-73
2021/10/03 06:31:04;;;;;;;3.17;2.87;;;;;;;;;;4975285;28;20425;-70
2021/10/03 06:33:31;;;;;;;3.40;3.10;;;;;;;;;;4975276;28;20414;-71
2021/10/03 06:35:57;;;;;;;3.27;2.97;;;;;;;;;;4974757;28;20506;-71
2021/10/03 06:38:23;;;;;;;3.30;3.00;;;;;;;;;;4975087;28;20465;-71
2021/10/03 06:40:49;;;;;;;3.37;3.07;;;;;;;;;;4975184;28;20913;-71
2021/10/03 06:43:15;;;;;;;7.17;6.47;;;;;;;;;;4974617;28;20478;-72
2021/10/03 06:45:41;;;;;;;14.57;12.33;;;;;;;;;;4975102;28;20506;-71
2021/10/03 06:48:11;;;;;;;4.50;4.10;;;;;;;;;;4974934;28;20914;-72
2021/10/03 06:50:37;;;;;;;3.70;3.40;;;;;;;;;;4974957;28;20421;-71
2021/10/03 06:53:03;;;;;;;2.80;2.60;;;;;;;;;;4974724;28;21000;-72
2021/10/03 06:55:30;;;;;;;3.40;2.47;;;;;;;;;;4974385;28;20470;-71
2021/10/03 06:57:56;;;;;;;4.83;3.07;;;;;;;;;;4971854;28;20434;-71
2021/10/03 07:00:22;;;;;;;3.03;2.83;;;;;;;;;;4972969;28;20419;-71
2021/10/03 07:02:48;;;;;;;3.30;2.40;;;;;;;;;;4974252;28;20537;-72
2021/10/03 07:05:14;;;;;;;3.10;2.67;;;;;;;;;;4974231;28;20415;-70
2021/10/03 07:10:44;;;;;;;2.63;2.43;;;;;;;;;;4974144;28;20474;-72
2021/10/03 07:13:11;;;;;;;2.70;2.50;;;;;;;;;;4973827;28;20780;-72
2021/10/03 07:15:37;;;;;;;6.60;2.50;;;;;;;;;;4974164;28;20422;-71
2021/10/03 07:18:04;;;;;;;5.80;2.70;;;;;;;;;;4974060;28;20414;-71
2021/10/03 07:20:30;;;;;;;2.50;2.30;;;;;;;;;;4974351;28;20480;-70
2021/10/03 07:25:59;;;;;;;2.00;1.80;;;;;;;;;;4973722;28;20422;-71
2021/10/03 07:28:25;;;;;;;2.53;2.33;;;;;;;;;;4974101;28;20765;-71
2021/10/03 07:30:51;;;;;;;3.50;2.33;;;;;;;;;;4973787;28;20426;-71
2021/10/03 07:33:19;;;;;;;3.17;2.87;;;;;;;;;;4973330;28;20422;-72
2021/10/03 07:35:48;;;;;;;4.07;2.57;;;;;;;;;;4973947;28;20422;-72
2021/10/03 07:41:18;;;;;;;2.87;2.67;;;;;;;;;;4973472;28;20469;-70
2021/10/03 07:43:44;;;;;;;5.80;2.70;;;;;;;;;;4973618;28;20438;-71
2021/10/03 07:46:10;;;;;;;5.30;4.60;;;;;;;;;;4974145;28;20809;-72
2021/10/03 07:48:37;;;;;;;3.23;2.93;;;;;;;;;;4973590;28;20908;-70
2021/10/03 07:51:03;;;;;;;4.40;3.57;;;;;;;;;;4973549;28;20426;-72
2021/10/03 07:56:32;;;;;;;2.70;2.50;;;;;;;;;;4973211;28;21157;-71
2021/10/03 07:58:58;;;;;;;3.10;2.80;;;;;;;;;;4973438;28;20415;-70
2021/10/03 08:01:24;;;;;;;3.03;2.47;;;;;;;;;;4973485;28;21020;-71
2021/10/03 08:03:50;;;;;;;3.20;2.93;;;;;;;;;;4974355;28;20522;-71
2021/10/03 08:06:17;;;;;;;2.70;2.30;;;;;;;;;;4973979;28;20479;-71
2021/10/03 08:11:47;;;;;;;2.80;2.60;;;;;;;;;;4972808;28;20481;-71
2021/10/03 08:14:13;;;;;;;3.57;2.70;;;;;;;;;;4973486;28;20419;-71
2021/10/03 08:16:40;;;;;;;2.60;2.40;;;;;;;;;;4973779;28;20434;-67
2021/10/03 08:19:06;;;;;;;2.37;2.17;;;;;;;;;;4973619;28;20746;-71
2021/10/03 08:21:32;;;;;;;4.90;2.90;;;;;;;;;;4973316;28;20466;-72
2021/10/03 08:27:01;;;;;;;2.17;1.97;;;;;;;;;;4972876;28;20944;-71
2021/10/03 08:29:27;;;;;;;2.87;2.67;;;;;;;;;;4973427;28;20426;-70
2021/10/03 08:31:53;;;;;;;3.27;2.90;;;;;;;;;;4973651;28;20798;-70
2021/10/03 08:34:19;;;;;;;2.67;2.27;;;;;;;;;;4973702;28;20810;-74
2021/10/03 08:36:45;;;;;;;2.47;2.27;;;;;;;;;;4973613;28;20411;-70
2021/10/03 08:42:14;;;;;;;2.87;2.57;;;;;;;;;;4972812;28;20999;-71
2021/10/03 08:44:41;;;;;;;3.17;2.87;;;;;;;;;;4973171;28;20426;-71
2021/10/03 08:47:08;;;;;;;3.10;2.90;;;;;;;;;;4973326;28;20442;-70
2021/10/03 08:49:34;;;;;;;2.53;2.33;;;;;;;;;;4973218;28;20415;-70
2021/10/03 08:52:00;;;;;;;2.87;2.43;;;;;;;;;;4973042;28;20415;-70
2021/10/03 08:57:30;;;;;;;2.97;2.70;;;;;;;;;;4972818;28;20481;-71
2021/10/03 09:00:08;;;;;;;2.40;2.20;;;;;;;;;;4976381;28;20438;-71
2021/10/03 09:02:52;;;;;;;3.97;2.43;;;;;;;;;;4976457;28;20481;-70
2021/10/03 09:05:18;;;;;;;2.43;2.23;;;;;;;;;;4975172;28;20426;-71
2021/10/03 09:08:03;;;;;;;2.70;2.50;;;;;;;;;;4976633;28;20458;-71
2021/10/03 09:10:44;;;;;;;3.27;2.97;;;;;;;;;;4976451;28;20422;-71
2021/10/03 09:13:10;;;;;;;3.87;3.27;;;;;;;;;;4976056;28;20427;-70
2021/10/03 09:15:36;;;;;;;4.47;2.80;;;;;;;;;;4975252;28;20448;-71
2021/10/03 09:18:02;;;;;;;3.10;2.80;;;;;;;;;;4976583;28;20829;-70
2021/10/03 09:20:30;;;;;;;2.53;2.33;;;;;;;;;;4976735;28;20426;-70
2021/10/03 09:23:14;;;;;;;3.53;2.23;;;;;;;;;;4976357;28;20478;-70
2021/10/03 09:25:40;;;;;;;2.47;2.20;;;;;;;;;;4976450;28;20414;-71
2021/10/03 09:28:08;;;;;;;2.20;2.10;;;;;;;;;;4976384;28;20433;-71
2021/10/03 09:30:36;;;;;;;3.57;2.80;;;;;;;;;;4976417;28;20914;-71
2021/10/03 09:33:02;;;;;;;4.30;2.93;;;;;;;;;;4976457;28;20505;-71
2021/10/03 09:35:30;;;;;;;4.63;2.73;;;;;;;;;;4976359;28;20948;-71
2021/10/03 09:37:56;;;;;;;3.10;2.80;;;;;;;;;;4976447;28;20523;-70
2021/10/03 09:40:23;;;;;;;3.37;3.00;;;;;;;;;;4976392;28;20912;-70
2021/10/03 09:43:05;;;;;;;3.03;2.73;;;;;;;;;;4975846;28;20477;-71
2021/10/03 09:45:32;;;;;;;2.93;2.43;;;;;;;;;;4976365;28;20873;-70
2021/10/03 09:48:03;;;;;;;3.27;3.00;;;;;;;;;;4975621;28;20423;-70
2021/10/03 09:50:29;;;;;;;2.87;2.67;;;;;;;;;;4976246;28;20477;-70
2021/10/03 09:52:56;;;;;;;3.97;3.27;;;;;;;;;;4976006;28;20445;-69
2021/10/03 09:55:25;;;;;;;4.00;3.03;;;;;;;;;;4976087;28;20952;-73
2021/10/03 09:57:52;;;;;;;2.97;2.77;;;;;;;;;;4975611;28;21048;-71
2021/10/03 10:00:18;;;;;;;3.20;2.50;;;;;;;;;;4974607;28;20434;-71
2021/10/03 10:02:45;;;;;;;2.63;2.43;;;;;;;;;;4975857;28;20474;-71
2021/10/03 10:05:12;;;;;;;3.00;2.67;;;;;;;;;;4975812;28;20930;-70
2021/10/03 10:07:38;;;;;;;4.27;2.57;;;;;;;;;;4976012;28;20414;-71
2021/10/03 10:13:13;;;;;;;5.50;2.40;;;;;;;;;;4975147;28;20960;-70
2021/10/03 10:15:40;;;;;;;3.20;3.00;;;;;;;;;;4975462;28;20441;-71
2021/10/03 10:18:21;;;;;;;3.17;2.47;;;;;;;;;;4975852;28;20763;-69
2021/10/03 10:20:47;;;;;;;2.67;2.47;;;;;;;;;;4975578;28;20419;-70
2021/10/03 10:23:16;;;;;;;3.20;2.90;;;;;;;;;;4975270;28;20529;-70
2021/10/03 10:25:48;;;;;;;2.97;2.63;;;;;;;;;;4975475;28;20945;-72
2021/10/03 10:28:16;;;;;;;3.57;2.47;;;;;;;;;;4975135;28;20485;-71
2021/10/03 10:31:02;;;;;;;2.50;2.30;;;;;;;;;;4975434;28;20422;-71
2021/10/03 10:33:28;;;;;;;3.50;3.20;;;;;;;;;;4975230;28;20768;-71
2021/10/03 10:36:12;;;;;;;2.50;2.30;;;;;;;;;;4975268;28;20743;-71
2021/10/03 10:38:38;;;;;;;2.10;2.00;;;;;;;;;;4975124;28;20838;-71
2021/10/03 10:41:24;;;;;;;5.63;3.07;;;;;;;;;;4975324;28;20944;-71
2021/10/03 10:43:50;;;;;;;3.03;2.83;;;;;;;;;;4974907;28;20786;-71
2021/10/03 10:46:35;;;;;;;2.60;2.40;;;;;;;;;;4975410;28;20407;-71
2021/10/03 10:49:19;;;;;;;2.50;2.30;;;;;;;;;;4974863;28;20425;-71
2021/10/03 10:51:45;;;;;;;3.73;2.80;;;;;;;;;;4974888;28;20421;-71
2021/10/03 10:54:14;;;;;;;2.60;2.10;;;;;;;;;;4974851;28;20774;-70
2021/10/03 10:56:40;;;;;;;3.40;3.10;;;;;;;;;;4973185;28;20997;-71
2021/10/03 10:59:08;;;;;;;3.47;3.17;;;;;;;;;;4974679;28;20414;-71
2021/10/03 11:01:33;;;;;;;7.57;6.87;;;;;;;;;;4973332;28;20521;-71
2021/10/03 11:04:00;;;;;;;3.20;2.90;;;;;;;;;;4974827;28;20517;-71
2021/10/03 11:06:32;;;;;;;5.93;3.80;;;;;;;;;;4974871;28;20413;-71
2021/10/03 11:08:58;;;;;;;3.20;1.97;;;;;;;;;;4974702;28;20530;-72
2021/10/03 11:11:24;;;;;;;2.53;2.33;;;;;;;;;;4974691;28;20425;-72
2021/10/03 11:13:51;;;;;;;2.03;1.90;;;;;;;;;;4974453;28;20771;-70
2021/10/03 11:16:23;;;;;;;2.90;2.70;;;;;;;;;;4974483;28;20425;-71
2021/10/03 11:18:50;;;;;;;7.20;2.57;;;;;;;;;;4974422;28;20422;-71
2021/10/03 11:21:19;;;;;;;3.27;1.93;;;;;;;;;;4972664;28;20422;-71
2021/10/03 11:23:46;;;;;;;2.73;2.53;;;;;;;;;;4974124;28;20435;-71
2021/10/03 11:26:12;;;;;;;2.90;2.60;;;;;;;;;;4974128;28;20485;-71
2021/10/03 11:28:58;;;;;;;2.47;2.20;;;;;;;;;;4974130;28;20434;-71
2021/10/03 11:31:50;;;;;;;2.90;2.40;;;;;;;;;;4974471;28;20410;-70
2021/10/03 11:34:35;;;;;;;4.40;2.70;;;;;;;;;;4974385;28;20427;-71
2021/10/03 11:37:03;;;;;;;2.20;2.00;;;;;;;;;;4974437;28;20446;-71
2021/10/03 11:39:35;;;;;;;3.87;2.50;;;;;;;;;;4974282;28;20882;-72
2021/10/03 11:42:01;;;;;;;3.67;2.70;;;;;;;;;;4974007;28;20474;-72
2021/10/03 11:44:27;;;;;;;2.80;2.60;;;;;;;;;;4974191;28;20442;-72
2021/10/03 11:47:01;;;;;;;2.63;2.43;;;;;;;;;;4974398;28;20398;-70
2021/10/03 11:49:28;;;;;;;2.27;2.17;;;;;;;;;;4974093;28;20829;-71
2021/10/03 11:51:55;;;;;;;2.83;2.50;;;;;;;;;;4973853;28;20425;-71
2021/10/03 11:54:30;;;;;;;2.53;2.33;;;;;;;;;;4974121;28;20423;-70
2021/10/03 11:56:56;;;;;;;2.80;2.60;;;;;;;;;;4973944;28;20430;-70
2021/10/03 11:59:22;;;;;;;2.97;2.77;;;;;;;;;;4973079;28;20510;-70
2021/10/03 12:01:48;;;;;;;6.40;2.70;;;;;;;;;;4972802;28;20462;-69
2021/10/03 12:04:28;;;;;;;6.00;2.83;;;;;;;;;;4972771;28;20431;-70
2021/10/03 12:06:54;;;;;;;2.53;2.33;;;;;;;;;;4973429;28;20476;-71
2021/10/03 12:09:22;;;;;;;2.70;2.30;;;;;;;;;;4973656;28;20819;-71
2021/10/03 12:11:54;;;;;;;4.40;2.90;;;;;;;;;;4973425;28;20426;-71
2021/10/03 12:14:20;;;;;;;2.70;2.43;;;;;;;;;;4973624;28;20505;-71
2021/10/03 12:16:50;;;;;;;2.33;2.10;;;;;;;;;;4973665;28;20418;-71
2021/10/03 12:19:16;;;;;;;5.10;2.40;;;;;;;;;;4973789;28;20422;-71
2021/10/03 12:21:42;;;;;;;2.97;2.37;;;;;;;;;;4973272;28;20462;-72
2021/10/03 12:24:08;;;;;;;3.47;2.93;;;;;;;;;;4973551;28;20426;-72
2021/10/03 12:26:49;;;;;;;2.30;2.10;;;;;;;;;;4973593;28;20407;-72
2021/10/03 12:29:25;;;;;;;3.20;2.20;;;;;;;;;;4973553;28;20419;-72
2021/10/03 12:31:54;;;;;;;2.37;2.17;;;;;;;;;;4973703;28;20410;-71
2021/10/03 12:34:23;;;;;;;3.33;2.73;;;;;;;;;;4976556;28;20419;-72
2021/10/03 12:36:49;;;;;;;3.20;2.77;;;;;;;;;;4977257;28;20425;-72
2021/10/03 12:39:22;;;;;;;3.67;2.07;;;;;;;;;;4977179;28;20426;-71
2021/10/03 12:41:50;;;;;;;2.40;2.20;;;;;;;;;;4976493;28;20469;-72
2021/10/03 12:44:16;;;;;;;2.60;2.40;;;;;;;;;;4977003;28;20435;-72
2021/10/03 12:46:42;;;;;;;3.90;2.90;;;;;;;;;;4977085;28;20411;-70
2021/10/03 12:49:08;;;;;;;1.77;1.67;;;;;;;;;;4976269;28;20493;-71
2021/10/03 12:51:34;;;;;;;3.17;2.80;;;;;;;;;;4976463;28;20513;-70
2021/10/03 12:54:01;;;;;;;2.93;2.27;;;;;;;;;;4976613;28;20481;-71
2021/10/03 12:56:27;;;;;;;2.87;2.50;;;;;;;;;;4976574;28;21047;-70
2021/10/03 12:58:53;;;;;;;2.63;2.43;;;;;;;;;;4976708;28;21044;-71
2021/10/03 13:01:19;;;;;;;3.83;2.80;;;;;;;;;;4976149;28;20506;-71
2021/10/03 13:03:45;;;;;;;2.87;2.60;;;;;;;;;;4976481;28;20917;-71
2021/10/03 13:06:12;;;;;;;3.40;3.10;;;;;;;;;;4976433;28;20803;-71
2021/10/03 13:08:38;;;;;;;2.87;2.67;;;;;;;;;;4976564;28;20427;-71
2021/10/03 13:14:08;;;;;;;5.10;2.60;;;;;;;;;;4976188;28;20476;-71
2021/10/03 13:16:34;;;;;;;2.50;2.30;;;;;;;;;;4976358;28;20417;-71
2021/10/03 13:19:00;;;;;;;2.50;2.30;;;;;;;;;;4976192;28;20427;-72
2021/10/03 13:21:25;;;;;;;3.20;2.80;;;;;;;;;;4975663;28;20426;-73
2021/10/03 13:23:52;;;;;;;4.03;2.97;;;;;;;;;;4976316;28;20485;-72
2021/10/03 13:26:18;;;;;;;2.70;2.50;;;;;;;;;;4976225;28;20447;-72
2021/10/03 13:28:44;;;;;;;3.47;3.10;;;;;;;;;;4976168;28;20445;-71
2021/10/03 13:31:10;;;;;;;2.70;2.13;;;;;;;;;;4976016;28;20423;-72
2021/10/03 13:33:37;;;;;;;3.27;2.77;;;;;;;;;;4976181;28;20757;-72
2021/10/03 13:36:03;;;;;;;2.93;2.73;;;;;;;;;;4975543;28;20434;-72
2021/10/03 13:38:29;;;;;;;2.60;2.40;;;;;;;;;;4976314;28;20458;-72
2021/10/03 13:43:59;;;;;;;3.00;2.70;;;;;;;;;;4975731;28;20450;-71
2021/10/03 13:46:25;;;;;;;3.40;2.83;;;;;;;;;;4975236;28;20433;-71
2021/10/03 13:48:51;;;;;;;4.20;3.30;;;;;;;;;;4976113;28;20812;-71
2021/10/03 13:51:17;;;;;;;3.80;3.50;;;;;;;;;;4974452;28;20561;-71
2021/10/03 13:53:43;;;;;;;3.27;2.40;;;;;;;;;;4975887;28;20431;-71
2021/10/03 13:59:13;;;;;;;2.90;2.67;;;;;;;;;;4975980;28;20797;-72
2021/10/03 14:01:39;;;;;;;3.57;3.07;;;;;;;;;;4975065;28;20426;-72
2021/10/03 14:04:05;;;;;;;3.03;2.80;;;;;;;;;;4975173;28;20918;-71
2021/10/03 14:06:31;;;;;;;3.10;2.50;;;;;;;;;;4973773;28;20442;-71
2021/10/03 14:14:45;;;;;;;2.60;2.20;;;;;;;;;;4975326;28;20409;-71
2021/10/03 14:17:12;;;;;;;4.73;4.33;;;;;;;;;;4975534;28;20785;-71
2021/10/03 14:19:38;;;;;;;6.03;2.90;;;;;;;;;;4975360;28;20423;-71
2021/10/03 14:22:04;;;;;;;3.20;2.47;;;;;;;;;;4974772;28;20462;-72
2021/10/03 14:24:31;;;;;;;3.77;3.00;;;;;;;;;;4975237;28;20566;-72
2021/10/03 14:26:57;;;;;;;3.17;2.87;;;;;;;;;;4974816;28;20418;-72
2021/10/03 14:29:23;;;;;;;3.10;2.80;;;;;;;;;;4975095;28;20442;-72
2021/10/03 14:31:50;;;;;;;3.23;2.93;;;;;;;;;;4974612;28;20426;-71
2021/10/03 14:34:16;;;;;;;3.50;3.20;;;;;;;;;;4975081;28;20435;-72
2021/10/03 14:36:42;;;;;;;4.00;3.60;;;;;;;;;;4975268;28;20422;-71
2021/10/03 14:39:07;;;;;;;3.20;3.00;;;;;;;;;;4975252;28;20923;-71
2021/10/03 14:41:33;;;;;;;5.80;2.70;;;;;;;;;;4974467;28;20525;-71
2021/10/03 14:43:59;;;;;;;3.50;3.20;;;;;;;;;;4974753;28;20515;-72
2021/10/03 14:46:25;;;;;;;4.43;4.10;;;;;;;;;;4974778;28;20816;-71
2021/10/03 14:48:51;;;;;;;3.13;2.83;;;;;;;;;;4974744;28;20454;-71
2021/10/03 14:51:17;;;;;;;15.33;4.83;;;;;;;;;;4973893;28;20423;-72
2021/10/03 14:53:44;;;;;;;4.17;3.30;;;;;;;;;;4974959;28;20836;-71
2021/10/03 14:59:13;;;;;;;4.57;2.43;;;;;;;;;;4974731;28;20887;-71
2021/10/03 15:01:40;;;;;;;3.57;2.70;;;;;;;;;;4974313;28;20423;-71
2021/10/03 15:04:06;;;;;;;5.10;2.17;;;;;;;;;;4974487;28;20430;-71
2021/10/03 15:06:32;;;;;;;3.80;3.30;;;;;;;;;;4974096;28;20505;-70
2021/10/03 15:09:00;;;;;;;4.10;3.03;;;;;;;;;;4973834;28;20451;-71
2021/10/03 15:14:30;;;;;;;4.47;3.87;;;;;;;;;;4974202;28;20428;-71
2021/10/03 15:16:57;;;;;;;4.00;3.00;;;;;;;;;;4974186;28;20517;-72
2021/10/03 15:19:23;;;;;;;4.63;3.57;;;;;;;;;;4974586;28;20728;-71
2021/10/03 15:21:49;;;;;;;3.60;3.30;;;;;;;;;;4973994;28;20532;-71
2021/10/03 15:24:15;;;;;;;4.23;3.70;;;;;;;;;;4974266;28;20431;-71
2021/10/03 15:26:41;;;;;;;4.83;3.70;;;;;;;;;;4973572;28;20425;-72
2021/10/03 15:29:07;;;;;;;4.50;3.40;;;;;;;;;;4973852;28;20437;-71
2021/10/03 15:31:33;;;;;;;8.03;3.87;;;;;;;;;;4973504;28;20462;-73
2021/10/03 15:33:59;;;;;;;4.50;3.97;;;;;;;;;;4974019;28;20522;-72
2021/10/03 15:36:25;;;;;;;4.20;3.67;;;;;;;;;;4974227;28;20451;-73
2021/10/03 15:38:51;;;;;;;4.57;2.90;;;;;;;;;;4974101;28;20423;-72
2021/10/03 15:44:20;;;;;;;5.00;3.57;;;;;;;;;;4973997;28;20434;-71
2021/10/03 15:46:46;;;;;;;4.07;3.60;;;;;;;;;;4973578;28;20417;-70
2021/10/03 15:49:12;;;;;;;5.60;4.03;;;;;;;;;;4973885;28;20440;-71
2021/10/03 15:51:39;;;;;;;5.63;3.73;;;;;;;;;;4973727;28;20441;-71
2021/10/03 15:54:05;;;;;;;6.70;3.57;;;;;;;;;;4974062;28;20418;-71
2021/10/03 15:59:34;;;;;;;4.30;3.37;;;;;;;;;;4973903;28;20428;-70
2021/10/03 16:02:00;;;;;;;4.10;3.70;;;;;;;;;;4973761;28;20458;-71
2021/10/03 16:04:26;;;;;;;5.33;3.63;;;;;;;;;;4974170;28;20414;-72
2021/10/03 16:06:52;;;;;;;4.10;3.70;;;;;;;;;;4973241;28;20513;-71
2021/10/03 16:09:23;;;;;;;4.27;3.87;;;;;;;;;;4976280;28;20960;-72
2021/10/03 16:14:52;;;;;;;7.40;4.37;;;;;;;;;;4977753;28;20421;-71
2021/10/03 16:17:18;;;;;;;3.37;3.07;;;;;;;;;;4977493;28;20517;-71
2021/10/03 16:19:44;;;;;;;8.17;3.97;;;;;;;;;;4977747;28;20497;-71
2021/10/03 16:22:10;;;;;;;4.77;3.60;;;;;;;;;;4977637;28;20558;-71
2021/10/03 16:24:36;;;;;;;4.33;3.93;;;;;;;;;;4977322;28;20430;-71
2021/10/03 16:27:02;;;;;;;3.77;3.40;;;;;;;;;;4976501;28;20429;-71
2021/10/03 16:29:28;;;;;;;4.80;4.40;;;;;;;;;;4976964;28;20916;-71
2021/10/03 16:31:54;;;;;;;6.07;4.20;;;;;;;;;;4976354;28;20464;-71
2021/10/03 16:34:20;;;;;;;6.33;4.53;;;;;;;;;;4976816;28;20498;-71
2021/10/03 16:36:47;;;;;;;6.00;4.30;;;;;;;;;;4975689;28;20434;-71
2021/10/03 16:39:13;;;;;;;5.57;4.73;;;;;;;;;;4976992;28;20426;-70
2021/10/03 16:44:43;;;;;;;4.97;4.47;;;;;;;;;;4976625;28;20425;-71
2021/10/03 16:47:09;;;;;;;3.57;3.27;;;;;;;;;;4971916;28;20427;-70
2021/10/03 16:49:35;;;;;;;3.90;3.50;;;;;;;;;;4976587;28;20427;-71